F/V Le Dolmen — FHMD — position and weather

sailwx.info

Track history (hours):
 
Tides and Currents Weather Stations Pressure Air Temp Water Temp Dewpoint Dewpoint Depression Visibility Wind Speed Wind Dir Waves Ship Positions

F/V Le Dolmen

Last reported at 2018-Apr-21 13:19 UTC. Time now 2018-Apr-21 13:39 UTC.
Position N 46°44' W 003°08'.

Length 18 m.

Type: Fishing. MMSI: 228374000.

Date/timePositionNaut miles runAvg speedWind from/ knotsBaromVisibWave heightAir tempDewpointWater temp
2018-Apr-21 13:19N 46°44' W 003°08'2 3.8
2018-Apr-21 12:47N 46°42' W 003°10'5 3.3
2018-Apr-21 11:22N 46°45' W 003°16'2 0.9
2018-Apr-21 09:21N 46°47' W 003°15'1 4.0
2018-Apr-21 09:00N 46°47' W 003°17'2 3.7
2018-Apr-21 08:28N 46°48' W 003°20'17 7.8
2018-Apr-21 06:16N 47°05' W 003°21'2 8.7
2018-Apr-21 06:00N 47°07' W 003°21'4 8.7
2018-Apr-21 05:30N 47°12' W 003°21'4 8.5
2018-Apr-21 04:59N 47°16' W 003°22'4 8.8
2018-Apr-21 04:30N 47°20' W 003°22'4 8.7
2018-Apr-21 04:00N 47°25' W 003°21'4 8.4
2018-Apr-21 03:30N 47°29' W 003°21'4 8.4
2018-Apr-21 03:00N 47°33' W 003°22'4 8.9
2018-Apr-21 02:30N 47°38' W 003°22'5 8.9
2018-Apr-21 02:00N 47°42' W 003°22'2 3.4
2018-Apr-21 01:30N 47°44' W 003°22'0 0.0
2018-Apr-21 01:00N 47°44' W 003°22'1 1.8
2018-Apr-21 00:30N 47°43' W 003°22'4 8.9
2018-Apr-21 00:00N 47°38' W 003°22'5 9.1
2018-Apr-20 23:30N 47°34' W 003°22'5 9.2
2018-Apr-20 23:00N 47°29' W 003°22'5 9.5
2018-Apr-20 22:30N 47°24' W 003°21'5 9.4
2018-Apr-20 22:00N 47°20' W 003°22'5 9.5
2018-Apr-20 21:30N 47°15' W 003°22'29 2.3
2018-Apr-20 08:37N 46°46' W 003°15'2 3.1
2018-Apr-20 08:07N 46°47' W 003°17'0 3.9
2018-Apr-20 08:00N 46°47' W 003°17'2 3.8
2018-Apr-20 07:30N 46°47' W 003°20'2 3.8
2018-Apr-20 07:00N 46°46' W 003°22'2 3.8
2018-Apr-20 06:30N 46°44' W 003°21'3 3.7
2018-Apr-20 05:44N 46°44' W 003°17'1 3.8
2018-Apr-20 05:30N 46°44' W 003°15'3 4.1
2018-Apr-20 04:50N 46°44' W 003°11'1 2.9
2018-Apr-20 04:30N 46°43' W 003°12'2 3.5
2018-Apr-20 04:00N 46°44' W 003°14'2 3.9
2018-Apr-20 03:30N 46°45' W 003°16'2 3.7
2018-Apr-20 03:00N 46°46' W 003°18'2 2.2
2018-Apr-20 02:06N 46°47' W 003°15'1 3.9
2018-Apr-20 01:52N 46°47' W 003°14'1 4.1
2018-Apr-20 01:30N 46°46' W 003°13'2 3.2
2018-Apr-20 01:00N 46°45' W 003°11'2 3.2
2018-Apr-20 00:30N 46°46' W 003°13'2 3.8
2018-Apr-20 00:00N 46°47' W 003°15'2 3.7
2018-Apr-19 23:29N 46°47' W 003°17'4 0.9
2018-Apr-19 19:14N 46°45' W 003°13'1 3.8
2018-Apr-19 19:00N 46°45' W 003°14'2 3.9
2018-Apr-19 18:25N 46°44' W 003°17'2 4.0
2018-Apr-19 18:00N 46°44' W 003°20'15 1.3
2018-Apr-19 06:27N 46°59' W 003°21'13 7.6
2018-Apr-19 04:43N 47°12' W 003°22'3 8.9
2018-Apr-19 04:26N 47°15' W 003°22'4 8.9
2018-Apr-19 04:00N 47°19' W 003°22'4 8.4
2018-Apr-19 03:30N 47°23' W 003°21'4 8.1
2018-Apr-19 03:00N 47°27' W 003°22'4 8.6
2018-Apr-19 02:30N 47°31' W 003°22'5 8.8
2018-Apr-19 02:00N 47°36' W 003°21'4 8.9
2018-Apr-19 01:30N 47°40' W 003°22'4 7.8
2018-Apr-19 01:00N 47°44' W 003°22'0 0.0
2018-Apr-19 00:30N 47°44' W 003°22'3 6.1
2018-Apr-19 00:00N 47°41' W 003°22'5 9.1
2018-Apr-18 23:30N 47°36' W 003°22'5 9.0
2018-Apr-18 23:00N 47°32' W 003°22'5 9.4
2018-Apr-18 22:29N 47°27' W 003°22'4 9.3
2018-Apr-18 22:00N 47°22' W 003°22'5 9.3
2018-Apr-18 21:30N 47°18' W 003°22'5 9.1
2018-Apr-18 20:54N 47°12' W 003°22'4 8.7
2018-Apr-18 20:27N 47°08' W 003°22'5 8.7
2018-Apr-18 19:55N 47°04' W 003°22'13 4.0
2018-Apr-18 16:38N 46°50' W 003°22'1 3.9
2018-Apr-18 16:15N 46°49' W 003°23'7 2.6
2018-Apr-18 13:30N 46°45' W 003°14'2 4.0
2018-Apr-18 12:55N 46°42' W 003°14'2 3.7
2018-Apr-18 12:26N 46°41' W 003°14'1 3.3
2018-Apr-18 12:00N 46°39' W 003°13'1 2.3
2018-Apr-18 11:28N 46°40' W 003°12'6 3.5
2018-Apr-18 09:44N 46°45' W 003°16'1 3.3
2018-Apr-18 09:30N 46°46' W 003°17'4 3.4
2018-Apr-18 08:24N 46°48' W 003°21'1 2.5
2018-Apr-18 08:00N 46°47' W 003°20'2 3.5
2018-Apr-18 07:29N 46°46' W 003°18'2 3.7
2018-Apr-18 06:51N 46°45' W 003°15'2 3.8
2018-Apr-18 06:19N 46°44' W 003°13'1 2.9
2018-Apr-18 05:48N 46°45' W 003°11'6 3.9
2018-Apr-18 04:11N 46°48' W 003°19'4 4.0
2018-Apr-18 03:16N 46°48' W 003°24'1 4.0
2018-Apr-18 03:00N 46°48' W 003°26'6 3.7
2018-Apr-18 01:23N 46°51' W 003°34'5 0.5
2018-Apr-17 14:23N 46°53' W 003°40'1 3.2
2018-Apr-17 14:00N 46°52' W 003°39'2 4.1
2018-Apr-17 13:30N 46°50' W 003°39'2 3.9
2018-Apr-17 13:00N 46°49' W 003°41'1 2.9
2018-Apr-17 12:30N 46°49' W 003°43'2 3.3
2018-Apr-17 12:00N 46°51' W 003°43'1 1.7
2018-Apr-17 11:30N 46°52' W 003°43'2 3.6
2018-Apr-17 11:01N 46°50' W 003°44'2 3.7
2018-Apr-17 10:30N 46°49' W 003°46'2 3.5
2018-Apr-17 10:00N 46°48' W 003°48'33 5.4
2018-Apr-17 04:00N 47°18' W 003°30'4 8.0
2018-Apr-17 03:30N 47°22' W 003°28'4 7.7
2018-Apr-17 03:00N 47°26' W 003°27'4 7.6
2018-Apr-17 02:30N 47°29' W 003°25'4 7.5
2018-Apr-17 02:00N 47°33' W 003°23'4 7.6
2018-Apr-17 01:30N 47°37' W 003°22'4 7.8
2018-Apr-17 01:00N 47°40' W 003°22'3 6.6
2018-Apr-17 00:30N 47°44' W 003°22'0 0.2
2018-Apr-17 00:00N 47°44' W 003°22'0 0.0
2018-Apr-16 23:30N 47°44' W 003°22'3 6.2
2018-Apr-16 23:00N 47°41' W 003°22'4 8.3
2018-Apr-16 22:31N 47°37' W 003°22'4 7.9
2018-Apr-16 22:00N 47°33' W 003°22'4 7.9
2018-Apr-16 21:30N 47°29' W 003°22'4 7.8
2018-Apr-16 21:00N 47°25' W 003°22'4 8.0
2018-Apr-16 20:30N 47°21' W 003°21'4 7.9
2018-Apr-16 20:00N 47°17' W 003°21'6 7.8
2018-Apr-16 19:15N 47°11' W 003°21'  
2018-Apr-14 06:48N 47°16' W 003°22'2 8.2
2018-Apr-14 06:30N 47°18' W 003°22'4 8.3
2018-Apr-14 06:00N 47°22' W 003°22'4 8.9
2018-Apr-14 05:30N 47°27' W 003°22'4 8.8
2018-Apr-14 05:00N 47°31' W 003°22'5 9.1
2018-Apr-14 04:30N 47°36' W 003°22'5 9.1
2018-Apr-14 04:00N 47°40' W 003°22'4 7.4
2018-Apr-14 03:30N 47°44' W 003°22'0 0.0
2018-Apr-14 03:00N 47°44' W 003°22'0 0.2
2018-Apr-14 02:30N 47°44' W 003°22'0 0.0
2018-Apr-14 02:00N 47°44' W 003°22'0 0.0
2018-Apr-14 01:30N 47°44' W 003°22'0 0.0
2018-Apr-14 01:00N 47°44' W 003°22'0 0.0
2018-Apr-14 00:30N 47°44' W 003°22'0 0.6
2018-Apr-14 00:00N 47°43' W 003°22'5 9.8
2018-Apr-13 23:30N 47°38' W 003°22'5 9.7
2018-Apr-13 23:00N 47°34' W 003°22'5 9.8
2018-Apr-13 22:30N 47°29' W 003°23'5 9.8
2018-Apr-13 22:00N 47°24' W 003°23'5 9.8
2018-Apr-13 21:30N 47°19' W 003°23'5 9.8
2018-Apr-13 21:00N 47°14' W 003°23'6 9.7
2018-Apr-13 20:24N 47°08' W 003°23'4 9.6
2018-Apr-13 19:59N 47°04' W 003°23'2 4.1
2018-Apr-13 19:25N 47°02' W 003°23'2 3.8
2018-Apr-13 18:56N 47°00' W 003°22'3 3.8
2018-Apr-13 18:14N 46°58' W 003°22'2 3.9
2018-Apr-13 17:41N 46°56' W 003°21'15 1.1
2018-Apr-13 04:00N 47°11' W 003°22'5 9.4
2018-Apr-13 03:30N 47°15' W 003°22'5 9.1
2018-Apr-13 03:00N 47°20' W 003°22'5 9.1
2018-Apr-13 02:30N 47°25' W 003°22'5 9.3
2018-Apr-13 02:00N 47°29' W 003°22'5 9.0
2018-Apr-13 01:30N 47°34' W 003°22'5 9.1
2018-Apr-13 01:00N 47°38' W 003°22'4 8.9
2018-Apr-13 00:30N 47°43' W 003°22'1 2.1
2018-Apr-13 00:00N 47°44' W 003°22'0 0.0
2018-Apr-12 23:30N 47°44' W 003°22'0 0.0
2018-Apr-12 23:00N 47°44' W 003°22'0 0.0
2018-Apr-12 22:30N 47°44' W 003°22'3 5.0
2018-Apr-12 22:00N 47°41' W 003°22'5 9.5
2018-Apr-12 21:30N 47°36' W 003°23'5 9.3
2018-Apr-12 21:00N 47°32' W 003°25'5 9.5
2018-Apr-12 20:30N 47°27' W 003°27'5 9.6
2018-Apr-12 20:00N 47°23' W 003°29'5 9.2
2018-Apr-12 19:29N 47°18' W 003°31'9 5.7
2018-Apr-12 17:58N 47°10' W 003°32'2 3.8
2018-Apr-12 17:30N 47°08' W 003°31'2 3.8
2018-Apr-12 16:59N 47°06' W 003°31'3 3.8
2018-Apr-12 16:19N 47°03' W 003°31'1 3.8
2018-Apr-12 16:00N 47°02' W 003°31'2 3.8
2018-Apr-12 15:27N 47°00' W 003°31'1 0.1
2018-Apr-12 09:10N 46°60' W 003°31'1 3.0
2018-Apr-12 08:42N 46°58' W 003°31'3 4.2
2018-Apr-12 07:56N 47°00' W 003°35'  
Track history (hours):
 
Tides and Currents Weather Stations Pressure Air Temp Water Temp Dewpoint Dewpoint Depression Visibility Wind Speed Wind Dir Waves Ship Positions

F/V Le Dolmen

Last reported at 2018-Apr-21 13:19 UTC. Time now 2018-Apr-21 13:39 UTC.
Position N 46°44' W 003°08'.

Length 18 m.

Type: Fishing. MMSI: 228374000.

Date/timePositionNaut miles runAvg speedWind from/ knotsBaromVisibWave heightAir tempDewpointWater temp
2018-Apr-21 13:19N 46°44' W 003°08'2 3.8
2018-Apr-21 12:47N 46°42' W 003°10'5 3.3
2018-Apr-21 11:22N 46°45' W 003°16'2 0.9
2018-Apr-21 09:21N 46°47' W 003°15'1 4.0
2018-Apr-21 09:00N 46°47' W 003°17'2 3.7
2018-Apr-21 08:28N 46°48' W 003°20'17 7.8
2018-Apr-21 06:16N 47°05' W 003°21'2 8.7
2018-Apr-21 06:00N 47°07' W 003°21'4 8.7
2018-Apr-21 05:30N 47°12' W 003°21'4 8.5
2018-Apr-21 04:59N 47°16' W 003°22'4 8.8
2018-Apr-21 04:30N 47°20' W 003°22'4 8.7
2018-Apr-21 04:00N 47°25' W 003°21'4 8.4
2018-Apr-21 03:30N 47°29' W 003°21'4 8.4
2018-Apr-21 03:00N 47°33' W 003°22'4 8.9
2018-Apr-21 02:30N 47°38' W 003°22'5 8.9
2018-Apr-21 02:00N 47°42' W 003°22'2 3.4
2018-Apr-21 01:30N 47°44' W 003°22'0 0.0
2018-Apr-21 01:00N 47°44' W 003°22'1 1.8
2018-Apr-21 00:30N 47°43' W 003°22'4 8.9
2018-Apr-21 00:00N 47°38' W 003°22'5 9.1
2018-Apr-20 23:30N 47°34' W 003°22'5 9.2
2018-Apr-20 23:00N 47°29' W 003°22'5 9.5
2018-Apr-20 22:30N 47°24' W 003°21'5 9.4
2018-Apr-20 22:00N 47°20' W 003°22'5 9.5
2018-Apr-20 21:30N 47°15' W 003°22'29 2.3
2018-Apr-20 08:37N 46°46' W 003°15'2 3.1
2018-Apr-20 08:07N 46°47' W 003°17'0 3.9
2018-Apr-20 08:00N 46°47' W 003°17'2 3.8
2018-Apr-20 07:30N 46°47' W 003°20'2 3.8
2018-Apr-20 07:00N 46°46' W 003°22'2 3.8
2018-Apr-20 06:30N 46°44' W 003°21'3 3.7
2018-Apr-20 05:44N 46°44' W 003°17'1 3.8
2018-Apr-20 05:30N 46°44' W 003°15'3 4.1
2018-Apr-20 04:50N 46°44' W 003°11'1 2.9
2018-Apr-20 04:30N 46°43' W 003°12'2 3.5
2018-Apr-20 04:00N 46°44' W 003°14'2 3.9
2018-Apr-20 03:30N 46°45' W 003°16'2 3.7
2018-Apr-20 03:00N 46°46' W 003°18'2 2.2
2018-Apr-20 02:06N 46°47' W 003°15'1 3.9
2018-Apr-20 01:52N 46°47' W 003°14'1 4.1
2018-Apr-20 01:30N 46°46' W 003°13'2 3.2
2018-Apr-20 01:00N 46°45' W 003°11'2 3.2
2018-Apr-20 00:30N 46°46' W 003°13'2 3.8
2018-Apr-20 00:00N 46°47' W 003°15'2 3.7
2018-Apr-19 23:29N 46°47' W 003°17'4 0.9
2018-Apr-19 19:14N 46°45' W 003°13'1 3.8
2018-Apr-19 19:00N 46°45' W 003°14'2 3.9
2018-Apr-19 18:25N 46°44' W 003°17'2 4.0
2018-Apr-19 18:00N 46°44' W 003°20'15 1.3
2018-Apr-19 06:27N 46°59' W 003°21'13 7.6
2018-Apr-19 04:43N 47°12' W 003°22'3 8.9
2018-Apr-19 04:26N 47°15' W 003°22'4 8.9
2018-Apr-19 04:00N 47°19' W 003°22'4 8.4
2018-Apr-19 03:30N 47°23' W 003°21'4 8.1
2018-Apr-19 03:00N 47°27' W 003°22'4 8.6
2018-Apr-19 02:30N 47°31' W 003°22'5 8.8
2018-Apr-19 02:00N 47°36' W 003°21'4 8.9
2018-Apr-19 01:30N 47°40' W 003°22'4 7.8
2018-Apr-19 01:00N 47°44' W 003°22'0 0.0
2018-Apr-19 00:30N 47°44' W 003°22'3 6.1
2018-Apr-19 00:00N 47°41' W 003°22'5 9.1
2018-Apr-18 23:30N 47°36' W 003°22'5 9.0
2018-Apr-18 23:00N 47°32' W 003°22'5 9.4
2018-Apr-18 22:29N 47°27' W 003°22'4 9.3
2018-Apr-18 22:00N 47°22' W 003°22'5 9.3
2018-Apr-18 21:30N 47°18' W 003°22'5 9.1
2018-Apr-18 20:54N 47°12' W 003°22'4 8.7
2018-Apr-18 20:27N 47°08' W 003°22'5 8.7
2018-Apr-18 19:55N 47°04' W 003°22'13 4.0
2018-Apr-18 16:38N 46°50' W 003°22'1 3.9
2018-Apr-18 16:15N 46°49' W 003°23'7 2.6
2018-Apr-18 13:30N 46°45' W 003°14'2 4.0
2018-Apr-18 12:55N 46°42' W 003°14'2 3.7
2018-Apr-18 12:26N 46°41' W 003°14'1 3.3
2018-Apr-18 12:00N 46°39' W 003°13'1 2.3
2018-Apr-18 11:28N 46°40' W 003°12'6 3.5
2018-Apr-18 09:44N 46°45' W 003°16'1 3.3
2018-Apr-18 09:30N 46°46' W 003°17'4 3.4
2018-Apr-18 08:24N 46°48' W 003°21'1 2.5
2018-Apr-18 08:00N 46°47' W 003°20'2 3.5
2018-Apr-18 07:29N 46°46' W 003°18'2 3.7
2018-Apr-18 06:51N 46°45' W 003°15'2 3.8
2018-Apr-18 06:19N 46°44' W 003°13'1 2.9
2018-Apr-18 05:48N 46°45' W 003°11'6 3.9
2018-Apr-18 04:11N 46°48' W 003°19'4 4.0
2018-Apr-18 03:16N 46°48' W 003°24'1 4.0
2018-Apr-18 03:00N 46°48' W 003°26'6 3.7
2018-Apr-18 01:23N 46°51' W 003°34'5 0.5
2018-Apr-17 14:23N 46°53' W 003°40'1 3.2
2018-Apr-17 14:00N 46°52' W 003°39'2 4.1
2018-Apr-17 13:30N 46°50' W 003°39'2 3.9
2018-Apr-17 13:00N 46°49' W 003°41'1 2.9
2018-Apr-17 12:30N 46°49' W 003°43'2 3.3
2018-Apr-17 12:00N 46°51' W 003°43'1 1.7
2018-Apr-17 11:30N 46°52' W 003°43'2 3.6
2018-Apr-17 11:01N 46°50' W 003°44'2 3.7
2018-Apr-17 10:30N 46°49' W 003°46'2 3.5
2018-Apr-17 10:00N 46°48' W 003°48'33 5.4
2018-Apr-17 04:00N 47°18' W 003°30'4 8.0
2018-Apr-17 03:30N 47°22' W 003°28'4 7.7
2018-Apr-17 03:00N 47°26' W 003°27'4 7.6
2018-Apr-17 02:30N 47°29' W 003°25'4 7.5
2018-Apr-17 02:00N 47°33' W 003°23'4 7.6
2018-Apr-17 01:30N 47°37' W 003°22'4 7.8
2018-Apr-17 01:00N 47°40' W 003°22'3 6.6
2018-Apr-17 00:30N 47°44' W 003°22'0 0.2
2018-Apr-17 00:00N 47°44' W 003°22'0 0.0
2018-Apr-16 23:30N 47°44' W 003°22'3 6.2
2018-Apr-16 23:00N 47°41' W 003°22'4 8.3
2018-Apr-16 22:31N 47°37' W 003°22'4 7.9
2018-Apr-16 22:00N 47°33' W 003°22'4 7.9
2018-Apr-16 21:30N 47°29' W 003°22'4 7.8
2018-Apr-16 21:00N 47°25' W 003°22'4 8.0
2018-Apr-16 20:30N 47°21' W 003°21'4 7.9
2018-Apr-16 20:00N 47°17' W 003°21'6 7.8
2018-Apr-16 19:15N 47°11' W 003°21'  
2018-Apr-14 06:48N 47°16' W 003°22'2 8.2
2018-Apr-14 06:30N 47°18' W 003°22'4 8.3
2018-Apr-14 06:00N 47°22' W 003°22'4 8.9
2018-Apr-14 05:30N 47°27' W 003°22'4 8.8
2018-Apr-14 05:00N 47°31' W 003°22'5 9.1
2018-Apr-14 04:30N 47°36' W 003°22'5 9.1
2018-Apr-14 04:00N 47°40' W 003°22'4 7.4
2018-Apr-14 03:30N 47°44' W 003°22'0 0.0
2018-Apr-14 03:00N 47°44' W 003°22'0 0.2
2018-Apr-14 02:30N 47°44' W 003°22'0 0.0
2018-Apr-14 02:00N 47°44' W 003°22'0 0.0
2018-Apr-14 01:30N 47°44' W 003°22'0 0.0
2018-Apr-14 01:00N 47°44' W 003°22'0 0.0
2018-Apr-14 00:30N 47°44' W 003°22'0 0.6
2018-Apr-14 00:00N 47°43' W 003°22'5 9.8
2018-Apr-13 23:30N 47°38' W 003°22'5 9.7
2018-Apr-13 23:00N 47°34' W 003°22'5 9.8
2018-Apr-13 22:30N 47°29' W 003°23'5 9.8
2018-Apr-13 22:00N 47°24' W 003°23'5 9.8
2018-Apr-13 21:30N 47°19' W 003°23'5 9.8
2018-Apr-13 21:00N 47°14' W 003°23'6 9.7
2018-Apr-13 20:24N 47°08' W 003°23'4 9.6
2018-Apr-13 19:59N 47°04' W 003°23'2 4.1
2018-Apr-13 19:25N 47°02' W 003°23'2 3.8
2018-Apr-13 18:56N 47°00' W 003°22'3 3.8
2018-Apr-13 18:14N 46°58' W 003°22'2 3.9
2018-Apr-13 17:41N 46°56' W 003°21'15 1.1
2018-Apr-13 04:00N 47°11' W 003°22'5 9.4
2018-Apr-13 03:30N 47°15' W 003°22'5 9.1
2018-Apr-13 03:00N 47°20' W 003°22'5 9.1
2018-Apr-13 02:30N 47°25' W 003°22'5 9.3
2018-Apr-13 02:00N 47°29' W 003°22'5 9.0
2018-Apr-13 01:30N 47°34' W 003°22'5 9.1
2018-Apr-13 01:00N 47°38' W 003°22'4 8.9
2018-Apr-13 00:30N 47°43' W 003°22'1 2.1
2018-Apr-13 00:00N 47°44' W 003°22'0 0.0
2018-Apr-12 23:30N 47°44' W 003°22'0 0.0
2018-Apr-12 23:00N 47°44' W 003°22'0 0.0
2018-Apr-12 22:30N 47°44' W 003°22'3 5.0
2018-Apr-12 22:00N 47°41' W 003°22'5 9.5
2018-Apr-12 21:30N 47°36' W 003°23'5 9.3
2018-Apr-12 21:00N 47°32' W 003°25'5 9.5
2018-Apr-12 20:30N 47°27' W 003°27'5 9.6
2018-Apr-12 20:00N 47°23' W 003°29'5 9.2
2018-Apr-12 19:29N 47°18' W 003°31'9 5.7
2018-Apr-12 17:58N 47°10' W 003°32'2 3.8
2018-Apr-12 17:30N 47°08' W 003°31'2 3.8
2018-Apr-12 16:59N 47°06' W 003°31'3 3.8
2018-Apr-12 16:19N 47°03' W 003°31'1 3.8
2018-Apr-12 16:00N 47°02' W 003°31'2 3.8
2018-Apr-12 15:27N 47°00' W 003°31'1 0.1
2018-Apr-12 09:10N 46°60' W 003°31'1 3.0
2018-Apr-12 08:42N 46°58' W 003°31'3 4.2
2018-Apr-12 07:56N 47°00' W 003°35'  

Dump ship's entire track history